sensor_id;sensor_type;location;lat;lon;timestamp;P1;durP1;ratioP1;P2;durP2;ratioP2
19312;SDS011;9791;50.820;4.406;2023-01-28T00:01:43;12.45;;;7.63;;
19312;SDS011;9791;50.820;4.406;2023-01-28T00:04:09;13.57;;;8.23;;
19312;SDS011;9791;50.820;4.406;2023-01-28T00:06:35;12.88;;;8.02;;
19312;SDS011;9791;50.820;4.406;2023-01-28T00:09:02;12.65;;;8.35;;
19312;SDS011;9791;50.820;4.406;2023-01-28T00:11:28;12.90;;;8.10;;
19312;SDS011;9791;50.820;4.406;2023-01-28T00:13:54;12.63;;;8.57;;
19312;SDS011;9791;50.820;4.406;2023-01-28T00:16:20;12.35;;;7.90;;
19312;SDS011;9791;50.820;4.406;2023-01-28T00:18:46;10.50;;;7.57;;
19312;SDS011;9791;50.820;4.406;2023-01-28T00:21:13;10.73;;;8.20;;
19312;SDS011;9791;50.820;4.406;2023-01-28T00:23:41;10.38;;;7.63;;
19312;SDS011;9791;50.820;4.406;2023-01-28T00:26:09;11.65;;;8.43;;
19312;SDS011;9791;50.820;4.406;2023-01-28T00:28:35;12.45;;;8.35;;
19312;SDS011;9791;50.820;4.406;2023-01-28T00:31:08;11.13;;;7.85;;
19312;SDS011;9791;50.820;4.406;2023-01-28T00:33:35;12.18;;;8.95;;
19312;SDS011;9791;50.820;4.406;2023-01-28T00:36:02;12.70;;;8.23;;
19312;SDS011;9791;50.820;4.406;2023-01-28T00:38:30;11.57;;;8.20;;
19312;SDS011;9791;50.820;4.406;2023-01-28T00:41:05;13.07;;;8.18;;
19312;SDS011;9791;50.820;4.406;2023-01-28T00:43:31;12.63;;;8.93;;
19312;SDS011;9791;50.820;4.406;2023-01-28T00:45:57;12.25;;;8.77;;
19312;SDS011;9791;50.820;4.406;2023-01-28T00:48:23;12.23;;;8.10;;
19312;SDS011;9791;50.820;4.406;2023-01-28T00:50:49;12.70;;;8.98;;
19312;SDS011;9791;50.820;4.406;2023-01-28T00:53:15;11.98;;;8.70;;
19312;SDS011;9791;50.820;4.406;2023-01-28T00:55:41;12.30;;;8.23;;
19312;SDS011;9791;50.820;4.406;2023-01-28T00:58:07;11.60;;;8.25;;
19312;SDS011;9791;50.820;4.406;2023-01-28T01:00:33;13.07;;;9.00;;
19312;SDS011;9791;50.820;4.406;2023-01-28T01:02:59;11.27;;;8.18;;
19312;SDS011;9791;50.820;4.406;2023-01-28T01:05:25;11.82;;;8.27;;
19312;SDS011;9791;50.820;4.406;2023-01-28T01:07:53;12.25;;;8.65;;
19312;SDS011;9791;50.820;4.406;2023-01-28T01:10:19;12.98;;;8.15;;
19312;SDS011;9791;50.820;4.406;2023-01-28T01:12:46;12.55;;;8.45;;
19312;SDS011;9791;50.820;4.406;2023-01-28T01:15:12;11.98;;;8.55;;
19312;SDS011;9791;50.820;4.406;2023-01-28T01:17:39;11.07;;;7.68;;
19312;SDS011;9791;50.820;4.406;2023-01-28T01:20:08;11.65;;;8.38;;
19312;SDS011;9791;50.820;4.406;2023-01-28T01:22:36;13.55;;;8.13;;
19312;SDS011;9791;50.820;4.406;2023-01-28T01:25:02;12.95;;;8.73;;
19312;SDS011;9791;50.820;4.406;2023-01-28T01:27:29;10.90;;;7.72;;
19312;SDS011;9791;50.820;4.406;2023-01-28T01:29:55;11.93;;;7.95;;
19312;SDS011;9791;50.820;4.406;2023-01-28T01:32:23;10.50;;;7.45;;
19312;SDS011;9791;50.820;4.406;2023-01-28T01:34:49;10.15;;;7.50;;
19312;SDS011;9791;50.820;4.406;2023-01-28T01:37:15;12.05;;;7.57;;
19312;SDS011;9791;50.820;4.406;2023-01-28T01:39:41;11.73;;;8.05;;
19312;SDS011;9791;50.820;4.406;2023-01-28T01:42:10;11.65;;;7.80;;
19312;SDS011;9791;50.820;4.406;2023-01-28T01:47:32;11.65;;;8.10;;
19312;SDS011;9791;50.820;4.406;2023-01-28T01:50:02;10.18;;;7.20;;
19312;SDS011;9791;50.820;4.406;2023-01-28T01:52:30;11.27;;;7.35;;
19312;SDS011;9791;50.820;4.406;2023-01-28T01:54:57;10.88;;;7.47;;
19312;SDS011;9791;50.820;4.406;2023-01-28T01:57:27;10.40;;;7.35;;
19312;SDS011;9791;50.820;4.406;2023-01-28T01:59:55;11.13;;;7.68;;
19312;SDS011;9791;50.820;4.406;2023-01-28T02:02:38;13.13;;;7.82;;
19312;SDS011;9791;50.820;4.406;2023-01-28T02:05:06;11.43;;;7.72;;
19312;SDS011;9791;50.820;4.406;2023-01-28T02:07:32;11.52;;;7.82;;
19312;SDS011;9791;50.820;4.406;2023-01-28T02:09:59;12.07;;;8.25;;
19312;SDS011;9791;50.820;4.406;2023-01-28T02:12:29;12.10;;;8.32;;
19312;SDS011;9791;50.820;4.406;2023-01-28T02:15:00;12.52;;;8.48;;
19312;SDS011;9791;50.820;4.406;2023-01-28T02:17:27;12.63;;;8.77;;
19312;SDS011;9791;50.820;4.406;2023-01-28T02:19:58;12.65;;;8.48;;
19312;SDS011;9791;50.820;4.406;2023-01-28T02:30:32;11.98;;;8.68;;
19312;SDS011;9791;50.820;4.406;2023-01-28T02:33:00;13.07;;;9.10;;
19312;SDS011;9791;50.820;4.406;2023-01-28T02:37:58;14.00;;;9.55;;
19312;SDS011;9791;50.820;4.406;2023-01-28T02:40:29;14.55;;;9.02;;
19312;SDS011;9791;50.820;4.406;2023-01-28T02:42:58;13.77;;;8.90;;
19312;SDS011;9791;50.820;4.406;2023-01-28T02:45:25;13.00;;;8.90;;
19312;SDS011;9791;50.820;4.406;2023-01-28T02:48:14;15.88;;;9.40;;
19312;SDS011;9791;50.820;4.406;2023-01-28T02:50:47;12.98;;;8.70;;
19312;SDS011;9791;50.820;4.406;2023-01-28T02:53:25;14.48;;;9.50;;
19312;SDS011;9791;50.820;4.406;2023-01-28T03:01:48;13.98;;;9.10;;
19312;SDS011;9791;50.820;4.406;2023-01-28T03:04:26;13.67;;;8.97;;
19312;SDS011;9791;50.820;4.406;2023-01-28T03:06:54;14.77;;;9.00;;
19312;SDS011;9791;50.820;4.406;2023-01-28T03:09:21;13.27;;;8.83;;
19312;SDS011;9791;50.820;4.406;2023-01-28T03:11:50;14.95;;;9.40;;
19312;SDS011;9791;50.820;4.406;2023-01-28T03:14:36;14.13;;;8.63;;
19312;SDS011;9791;50.820;4.406;2023-01-28T03:17:31;12.13;;;8.33;;
19312;SDS011;9791;50.820;4.406;2023-01-28T03:20:19;12.25;;;7.93;;
19312;SDS011;9791;50.820;4.406;2023-01-28T03:23:07;13.90;;;8.97;;
19312;SDS011;9791;50.820;4.406;2023-01-28T03:25:54;14.38;;;8.90;;
19312;SDS011;9791;50.820;4.406;2023-01-28T03:28:39;13.77;;;8.77;;
19312;SDS011;9791;50.820;4.406;2023-01-28T03:31:25;12.73;;;8.52;;
19312;SDS011;9791;50.820;4.406;2023-01-28T03:34:10;12.80;;;8.15;;
19312;SDS011;9791;50.820;4.406;2023-01-28T03:36:55;16.05;;;9.85;;
19312;SDS011;9791;50.820;4.406;2023-01-28T03:39:25;15.82;;;9.18;;
19312;SDS011;9791;50.820;4.406;2023-01-28T03:41:55;12.52;;;8.60;;
19312;SDS011;9791;50.820;4.406;2023-01-28T03:44:21;13.50;;;8.65;;
19312;SDS011;9791;50.820;4.406;2023-01-28T03:47:06;11.75;;;7.68;;
19312;SDS011;9791;50.820;4.406;2023-01-28T03:49:33;14.23;;;9.17;;
19312;SDS011;9791;50.820;4.406;2023-01-28T03:51:59;13.03;;;8.40;;
19312;SDS011;9791;50.820;4.406;2023-01-28T03:54:25;13.18;;;8.73;;
19312;SDS011;9791;50.820;4.406;2023-01-28T03:56:51;18.15;;;10.18;;
19312;SDS011;9791;50.820;4.406;2023-01-28T03:59:18;14.25;;;9.40;;
19312;SDS011;9791;50.820;4.406;2023-01-28T04:01:44;13.80;;;8.50;;
19312;SDS011;9791;50.820;4.406;2023-01-28T04:04:10;12.53;;;8.57;;
19312;SDS011;9791;50.820;4.406;2023-01-28T04:06:47;13.65;;;8.85;;
19312;SDS011;9791;50.820;4.406;2023-01-28T04:09:13;12.87;;;8.53;;
19312;SDS011;9791;50.820;4.406;2023-01-28T04:11:39;15.30;;;9.50;;
19312;SDS011;9791;50.820;4.406;2023-01-28T04:14:05;15.00;;;9.18;;
19312;SDS011;9791;50.820;4.406;2023-01-28T04:16:32;13.00;;;8.67;;
19312;SDS011;9791;50.820;4.406;2023-01-28T04:18:58;12.50;;;8.37;;
19312;SDS011;9791;50.820;4.406;2023-01-28T04:21:24;14.80;;;9.48;;
19312;SDS011;9791;50.820;4.406;2023-01-28T04:23:50;14.52;;;8.85;;
19312;SDS011;9791;50.820;4.406;2023-01-28T04:26:16;12.02;;;8.27;;
19312;SDS011;9791;50.820;4.406;2023-01-28T04:28:42;14.60;;;8.95;;
19312;SDS011;9791;50.820;4.406;2023-01-28T04:31:08;13.88;;;9.18;;
19312;SDS011;9791;50.820;4.406;2023-01-28T04:33:34;12.43;;;8.32;;
19312;SDS011;9791;50.820;4.406;2023-01-28T04:36:00;13.15;;;8.05;;
19312;SDS011;9791;50.820;4.406;2023-01-28T04:38:26;14.40;;;9.10;;
19312;SDS011;9791;50.820;4.406;2023-01-28T04:40:52;14.07;;;8.57;;
19312;SDS011;9791;50.820;4.406;2023-01-28T04:43:18;12.17;;;8.20;;
19312;SDS011;9791;50.820;4.406;2023-01-28T04:45:47;13.35;;;8.43;;
19312;SDS011;9791;50.820;4.406;2023-01-28T04:48:14;13.13;;;7.93;;
19312;SDS011;9791;50.820;4.406;2023-01-28T04:50:42;12.75;;;8.65;;
19312;SDS011;9791;50.820;4.406;2023-01-28T04:53:08;13.83;;;8.57;;
19312;SDS011;9791;50.820;4.406;2023-01-28T04:55:34;15.50;;;8.77;;
19312;SDS011;9791;50.820;4.406;2023-01-28T04:58:01;13.13;;;8.13;;
19312;SDS011;9791;50.820;4.406;2023-01-28T05:00:27;13.80;;;8.65;;
19312;SDS011;9791;50.820;4.406;2023-01-28T05:02:53;13.23;;;7.43;;
19312;SDS011;9791;50.820;4.406;2023-01-28T05:05:19;12.70;;;8.73;;
19312;SDS011;9791;50.820;4.406;2023-01-28T05:07:51;13.05;;;8.80;;
19312;SDS011;9791;50.820;4.406;2023-01-28T05:10:17;14.40;;;8.70;;
19312;SDS011;9791;50.820;4.406;2023-01-28T05:12:44;13.27;;;9.15;;
19312;SDS011;9791;50.820;4.406;2023-01-28T05:15:10;12.60;;;8.25;;
19312;SDS011;9791;50.820;4.406;2023-01-28T05:17:36;14.57;;;9.60;;
19312;SDS011;9791;50.820;4.406;2023-01-28T05:20:03;14.10;;;8.63;;
19312;SDS011;9791;50.820;4.406;2023-01-28T05:22:29;14.63;;;9.52;;
19312;SDS011;9791;50.820;4.406;2023-01-28T05:24:55;14.35;;;9.02;;
19312;SDS011;9791;50.820;4.406;2023-01-28T05:27:21;14.95;;;10.15;;
19312;SDS011;9791;50.820;4.406;2023-01-28T05:29:47;13.93;;;9.37;;
19312;SDS011;9791;50.820;4.406;2023-01-28T05:32:13;14.13;;;8.95;;
19312;SDS011;9791;50.820;4.406;2023-01-28T05:34:39;14.68;;;9.43;;
19312;SDS011;9791;50.820;4.406;2023-01-28T05:37:05;14.83;;;9.03;;
19312;SDS011;9791;50.820;4.406;2023-01-28T05:39:31;14.57;;;9.33;;
19312;SDS011;9791;50.820;4.406;2023-01-28T05:41:57;13.48;;;9.25;;
19312;SDS011;9791;50.820;4.406;2023-01-28T05:44:23;12.33;;;8.63;;
19312;SDS011;9791;50.820;4.406;2023-01-28T05:46:49;12.93;;;8.52;;
19312;SDS011;9791;50.820;4.406;2023-01-28T05:49:15;12.00;;;8.80;;
19312;SDS011;9791;50.820;4.406;2023-01-28T05:51:41;14.55;;;8.27;;
19312;SDS011;9791;50.820;4.406;2023-01-28T05:54:08;13.07;;;8.67;;
19312;SDS011;9791;50.820;4.406;2023-01-28T05:56:34;12.33;;;8.67;;
19312;SDS011;9791;50.820;4.406;2023-01-28T05:59:00;14.43;;;8.97;;
19312;SDS011;9791;50.820;4.406;2023-01-28T06:01:26;13.13;;;8.95;;
19312;SDS011;9791;50.820;4.406;2023-01-28T06:03:52;12.63;;;8.35;;
19312;SDS011;9791;50.820;4.406;2023-01-28T06:06:19;13.40;;;9.17;;
19312;SDS011;9791;50.820;4.406;2023-01-28T06:08:45;14.67;;;9.57;;
19312;SDS011;9791;50.820;4.406;2023-01-28T06:11:11;12.52;;;8.23;;
19312;SDS011;9791;50.820;4.406;2023-01-28T06:13:37;14.73;;;9.02;;
19312;SDS011;9791;50.820;4.406;2023-01-28T06:16:04;12.87;;;8.37;;
19312;SDS011;9791;50.820;4.406;2023-01-28T06:18:30;13.87;;;8.97;;
19312;SDS011;9791;50.820;4.406;2023-01-28T06:20:56;14.33;;;9.57;;
19312;SDS011;9791;50.820;4.406;2023-01-28T06:23:22;16.00;;;9.80;;
19312;SDS011;9791;50.820;4.406;2023-01-28T06:25:51;14.87;;;8.77;;
19312;SDS011;9791;50.820;4.406;2023-01-28T06:28:17;15.95;;;10.38;;
19312;SDS011;9791;50.820;4.406;2023-01-28T06:30:46;14.83;;;9.67;;
19312;SDS011;9791;50.820;4.406;2023-01-28T06:33:13;13.70;;;9.13;;
19312;SDS011;9791;50.820;4.406;2023-01-28T06:35:39;13.63;;;9.50;;
19312;SDS011;9791;50.820;4.406;2023-01-28T06:38:05;14.50;;;9.20;;
19312;SDS011;9791;50.820;4.406;2023-01-28T06:40:31;13.37;;;8.90;;
19312;SDS011;9791;50.820;4.406;2023-01-28T06:42:57;14.20;;;9.50;;
19312;SDS011;9791;50.820;4.406;2023-01-28T06:45:23;12.27;;;8.60;;
19312;SDS011;9791;50.820;4.406;2023-01-28T06:47:49;12.05;;;8.43;;
19312;SDS011;9791;50.820;4.406;2023-01-28T06:50:15;13.50;;;8.90;;
19312;SDS011;9791;50.820;4.406;2023-01-28T06:52:41;14.17;;;9.67;;
19312;SDS011;9791;50.820;4.406;2023-01-28T06:55:07;14.97;;;10.43;;
19312;SDS011;9791;50.820;4.406;2023-01-28T06:57:38;14.18;;;8.93;;
19312;SDS011;9791;50.820;4.406;2023-01-28T07:00:08;13.63;;;9.23;;
19312;SDS011;9791;50.820;4.406;2023-01-28T07:02:37;13.37;;;9.10;;
19312;SDS011;9791;50.820;4.406;2023-01-28T07:05:04;14.57;;;9.20;;
19312;SDS011;9791;50.820;4.406;2023-01-28T07:07:30;13.40;;;9.43;;
19312;SDS011;9791;50.820;4.406;2023-01-28T07:09:56;13.10;;;8.68;;
19312;SDS011;9791;50.820;4.406;2023-01-28T07:12:23;12.23;;;8.13;;
19312;SDS011;9791;50.820;4.406;2023-01-28T07:14:50;12.73;;;8.27;;
19312;SDS011;9791;50.820;4.406;2023-01-28T07:17:16;12.30;;;8.27;;
19312;SDS011;9791;50.820;4.406;2023-01-28T07:19:42;12.68;;;7.80;;
19312;SDS011;9791;50.820;4.406;2023-01-28T07:22:08;12.15;;;8.73;;
19312;SDS011;9791;50.820;4.406;2023-01-28T07:24:34;11.87;;;8.00;;
19312;SDS011;9791;50.820;4.406;2023-01-28T07:27:00;14.07;;;8.30;;
19312;SDS011;9791;50.820;4.406;2023-01-28T07:29:26;13.43;;;8.50;;
19312;SDS011;9791;50.820;4.406;2023-01-28T07:31:52;13.77;;;9.43;;
19312;SDS011;9791;50.820;4.406;2023-01-28T07:34:18;13.50;;;9.17;;
19312;SDS011;9791;50.820;4.406;2023-01-28T07:36:44;13.17;;;8.83;;
19312;SDS011;9791;50.820;4.406;2023-01-28T07:39:10;13.60;;;8.83;;
19312;SDS011;9791;50.820;4.406;2023-01-28T07:41:36;13.57;;;8.80;;
19312;SDS011;9791;50.820;4.406;2023-01-28T07:44:02;12.73;;;8.87;;
19312;SDS011;9791;50.820;4.406;2023-01-28T07:46:28;12.57;;;8.67;;
19312;SDS011;9791;50.820;4.406;2023-01-28T07:48:55;11.97;;;8.23;;
19312;SDS011;9791;50.820;4.406;2023-01-28T07:51:21;14.27;;;8.90;;
19312;SDS011;9791;50.820;4.406;2023-01-28T07:53:47;15.07;;;9.87;;
19312;SDS011;9791;50.820;4.406;2023-01-28T07:56:13;11.60;;;8.10;;
19312;SDS011;9791;50.820;4.406;2023-01-28T07:58:39;15.87;;;9.23;;
19312;SDS011;9791;50.820;4.406;2023-01-28T08:01:05;13.40;;;9.03;;
19312;SDS011;9791;50.820;4.406;2023-01-28T08:03:31;13.53;;;8.93;;
19312;SDS011;9791;50.820;4.406;2023-01-28T08:05:58;14.63;;;8.90;;
19312;SDS011;9791;50.820;4.406;2023-01-28T08:08:24;14.53;;;9.43;;
19312;SDS011;9791;50.820;4.406;2023-01-28T08:10:54;13.50;;;9.20;;
19312;SDS011;9791;50.820;4.406;2023-01-28T08:13:20;14.37;;;8.93;;
19312;SDS011;9791;50.820;4.406;2023-01-28T08:15:46;11.67;;;8.23;;
19312;SDS011;9791;50.820;4.406;2023-01-28T08:18:13;13.53;;;8.90;;
19312;SDS011;9791;50.820;4.406;2023-01-28T08:20:39;11.40;;;7.63;;
19312;SDS011;9791;50.820;4.406;2023-01-28T08:25:33;13.33;;;8.30;;
19312;SDS011;9791;50.820;4.406;2023-01-28T08:27:59;13.30;;;8.87;;
19312;SDS011;9791;50.820;4.406;2023-01-28T08:30:25;13.03;;;8.30;;
19312;SDS011;9791;50.820;4.406;2023-01-28T08:32:54;12.70;;;8.17;;
19312;SDS011;9791;50.820;4.406;2023-01-28T08:35:22;13.63;;;8.73;;
19312;SDS011;9791;50.820;4.406;2023-01-28T08:37:48;13.73;;;8.40;;
19312;SDS011;9791;50.820;4.406;2023-01-28T08:40:14;13.27;;;9.10;;
19312;SDS011;9791;50.820;4.406;2023-01-28T08:42:50;12.27;;;8.17;;
19312;SDS011;9791;50.820;4.406;2023-01-28T08:45:16;12.27;;;8.20;;
19312;SDS011;9791;50.820;4.406;2023-01-28T08:50:15;11.53;;;8.53;;
19312;SDS011;9791;50.820;4.406;2023-01-28T08:52:42;12.27;;;8.50;;
19312;SDS011;9791;50.820;4.406;2023-01-28T08:55:09;14.17;;;9.63;;
19312;SDS011;9791;50.820;4.406;2023-01-28T08:57:35;13.03;;;8.83;;
19312;SDS011;9791;50.820;4.406;2023-01-28T09:00:01;17.23;;;9.10;;
19312;SDS011;9791;50.820;4.406;2023-01-28T09:02:27;14.00;;;8.53;;
19312;SDS011;9791;50.820;4.406;2023-01-28T09:04:53;13.87;;;9.40;;
19312;SDS011;9791;50.820;4.406;2023-01-28T09:07:19;14.33;;;8.93;;
19312;SDS011;9791;50.820;4.406;2023-01-28T09:09:45;16.30;;;9.30;;
19312;SDS011;9791;50.820;4.406;2023-01-28T09:12:11;14.50;;;9.70;;
19312;SDS011;9791;50.820;4.406;2023-01-28T09:14:37;14.63;;;9.27;;
19312;SDS011;9791;50.820;4.406;2023-01-28T09:17:03;12.97;;;8.83;;
19312;SDS011;9791;50.820;4.406;2023-01-28T09:19:29;14.98;;;9.88;;
19312;SDS011;9791;50.820;4.406;2023-01-28T09:21:55;15.47;;;10.00;;
19312;SDS011;9791;50.820;4.406;2023-01-28T09:24:21;14.77;;;9.63;;
19312;SDS011;9791;50.820;4.406;2023-01-28T09:26:48;14.32;;;9.82;;
19312;SDS011;9791;50.820;4.406;2023-01-28T09:29:14;13.50;;;9.07;;
19312;SDS011;9791;50.820;4.406;2023-01-28T09:31:40;14.40;;;9.83;;
19312;SDS011;9791;50.820;4.406;2023-01-28T09:34:07;13.87;;;9.03;;
19312;SDS011;9791;50.820;4.406;2023-01-28T09:36:33;13.43;;;9.17;;
19312;SDS011;9791;50.820;4.406;2023-01-28T09:38:59;14.33;;;9.67;;
19312;SDS011;9791;50.820;4.406;2023-01-28T09:44:02;15.77;;;10.10;;
19312;SDS011;9791;50.820;4.406;2023-01-28T09:46:33;16.70;;;9.97;;
19312;SDS011;9791;50.820;4.406;2023-01-28T09:49:00;13.73;;;8.97;;
19312;SDS011;9791;50.820;4.406;2023-01-28T09:51:29;15.83;;;10.20;;
19312;SDS011;9791;50.820;4.406;2023-01-28T09:53:58;15.27;;;10.07;;
19312;SDS011;9791;50.820;4.406;2023-01-28T09:56:27;16.00;;;9.37;;
19312;SDS011;9791;50.820;4.406;2023-01-28T09:58:56;15.30;;;10.13;;
19312;SDS011;9791;50.820;4.406;2023-01-28T10:01:37;13.80;;;9.47;;
19312;SDS011;9791;50.820;4.406;2023-01-28T10:14:37;15.50;;;9.73;;
19312;SDS011;9791;50.820;4.406;2023-01-28T10:17:12;16.53;;;10.23;;
19312;SDS011;9791;50.820;4.406;2023-01-28T10:19:49;17.37;;;10.43;;
19312;SDS011;9791;50.820;4.406;2023-01-28T10:22:20;14.63;;;10.13;;
19312;SDS011;9791;50.820;4.406;2023-01-28T10:24:57;15.33;;;10.47;;
19312;SDS011;9791;50.820;4.406;2023-01-28T10:27:31;17.20;;;11.10;;
19312;SDS011;9791;50.820;4.406;2023-01-28T10:30:04;14.13;;;9.37;;
19312;SDS011;9791;50.820;4.406;2023-01-28T10:32:37;16.77;;;10.77;;
19312;SDS011;9791;50.820;4.406;2023-01-28T10:35:07;17.33;;;11.37;;
19312;SDS011;9791;50.820;4.406;2023-01-28T10:37:33;20.07;;;12.10;;
19312;SDS011;9791;50.820;4.406;2023-01-28T10:40:00;16.17;;;10.73;;
19312;SDS011;9791;50.820;4.406;2023-01-28T10:42:29;16.87;;;10.70;;
19312;SDS011;9791;50.820;4.406;2023-01-28T10:44:56;15.73;;;10.73;;
19312;SDS011;9791;50.820;4.406;2023-01-28T10:47:28;15.43;;;10.20;;
19312;SDS011;9791;50.820;4.406;2023-01-28T10:49:57;14.47;;;9.63;;
19312;SDS011;9791;50.820;4.406;2023-01-28T10:52:23;16.50;;;10.13;;
19312;SDS011;9791;50.820;4.406;2023-01-28T10:55:05;14.27;;;9.50;;
19312;SDS011;9791;50.820;4.406;2023-01-28T10:57:34;15.17;;;10.10;;
19312;SDS011;9791;50.820;4.406;2023-01-28T11:02:50;13.57;;;9.03;;
19312;SDS011;9791;50.820;4.406;2023-01-28T11:05:24;13.63;;;9.10;;
19312;SDS011;9791;50.820;4.406;2023-01-28T11:08:01;14.00;;;9.13;;
19312;SDS011;9791;50.820;4.406;2023-01-28T11:12:56;15.25;;;10.00;;
19312;SDS011;9791;50.820;4.406;2023-01-28T11:15:23;15.60;;;8.88;;
19312;SDS011;9791;50.820;4.406;2023-01-28T11:18:14;14.73;;;9.87;;
19312;SDS011;9791;50.820;4.406;2023-01-28T11:20:40;12.90;;;8.60;;
19312;SDS011;9791;50.820;4.406;2023-01-28T11:23:16;14.57;;;9.55;;
19312;SDS011;9791;50.820;4.406;2023-01-28T11:25:42;14.17;;;9.23;;
19312;SDS011;9791;50.820;4.406;2023-01-28T11:28:14;15.93;;;9.80;;
19312;SDS011;9791;50.820;4.406;2023-01-28T11:30:42;12.60;;;8.73;;
19312;SDS011;9791;50.820;4.406;2023-01-28T11:35:37;13.65;;;9.70;;
19312;SDS011;9791;50.820;4.406;2023-01-28T11:38:10;14.10;;;9.13;;
19312;SDS011;9791;50.820;4.406;2023-01-28T11:40:48;14.45;;;8.77;;
19312;SDS011;9791;50.820;4.406;2023-01-28T11:43:15;14.25;;;8.77;;
19312;SDS011;9791;50.820;4.406;2023-01-28T11:45:43;13.33;;;8.97;;
19312;SDS011;9791;50.820;4.406;2023-01-28T11:50:49;14.45;;;8.63;;
19312;SDS011;9791;50.820;4.406;2023-01-28T11:53:38;14.02;;;8.63;;
19312;SDS011;9791;50.820;4.406;2023-01-28T12:01:02;14.02;;;8.82;;
19312;SDS011;9791;50.820;4.406;2023-01-28T12:14:19;25.95;;;13.40;;
19312;SDS011;9791;50.820;4.406;2023-01-28T12:27:25;13.23;;;8.43;;
19312;SDS011;9791;50.820;4.406;2023-01-28T12:35:05;16.25;;;9.88;;
19312;SDS011;9791;50.820;4.406;2023-01-28T12:47:38;14.23;;;9.65;;
19312;SDS011;9791;50.820;4.406;2023-01-28T12:50:16;13.18;;;8.68;;
19312;SDS011;9791;50.820;4.406;2023-01-28T12:52:46;13.13;;;9.20;;
19312;SDS011;9791;50.820;4.406;2023-01-28T12:55:15;13.45;;;8.95;;
19312;SDS011;9791;50.820;4.406;2023-01-28T12:57:42;13.52;;;9.32;;
19312;SDS011;9791;50.820;4.406;2023-01-28T13:00:27;13.85;;;9.45;;
19312;SDS011;9791;50.820;4.406;2023-01-28T13:05:34;15.40;;;9.70;;
19312;SDS011;9791;50.820;4.406;2023-01-28T13:08:03;13.65;;;9.80;;
19312;SDS011;9791;50.820;4.406;2023-01-28T13:10:41;13.70;;;10.05;;
19312;SDS011;9791;50.820;4.406;2023-01-28T13:13:11;15.73;;;10.30;;
19312;SDS011;9791;50.820;4.406;2023-01-28T13:15:39;17.75;;;10.98;;
19312;SDS011;9791;50.820;4.406;2023-01-28T13:18:06;17.45;;;11.25;;
19312;SDS011;9791;50.820;4.406;2023-01-28T13:20:49;15.88;;;10.98;;
19312;SDS011;9791;50.820;4.406;2023-01-28T13:23:23;15.05;;;9.63;;
19312;SDS011;9791;50.820;4.406;2023-01-28T13:25:50;15.15;;;10.43;;
19312;SDS011;9791;50.820;4.406;2023-01-28T13:28:30;14.55;;;10.00;;
19312;SDS011;9791;50.820;4.406;2023-01-28T13:33:27;13.50;;;9.40;;
19312;SDS011;9791;50.820;4.406;2023-01-28T13:35:54;16.83;;;10.48;;
19312;SDS011;9791;50.820;4.406;2023-01-28T13:38:20;15.63;;;10.40;;
19312;SDS011;9791;50.820;4.406;2023-01-28T13:40:53;15.57;;;10.60;;
19312;SDS011;9791;50.820;4.406;2023-01-28T13:45:58;14.20;;;9.32;;
19312;SDS011;9791;50.820;4.406;2023-01-28T13:50:54;15.43;;;10.07;;
19312;SDS011;9791;50.820;4.406;2023-01-28T13:53:33;16.73;;;11.00;;
19312;SDS011;9791;50.820;4.406;2023-01-28T13:56:03;17.13;;;10.88;;
19312;SDS011;9791;50.820;4.406;2023-01-28T13:58:37;17.58;;;10.35;;
19312;SDS011;9791;50.820;4.406;2023-01-28T14:03:46;16.48;;;10.43;;
19312;SDS011;9791;50.820;4.406;2023-01-28T14:19:32;16.25;;;10.95;;
19312;SDS011;9791;50.820;4.406;2023-01-28T14:22:04;16.17;;;11.45;;
19312;SDS011;9791;50.820;4.406;2023-01-28T14:24:30;17.27;;;11.18;;
19312;SDS011;9791;50.820;4.406;2023-01-28T14:27:01;15.25;;;10.45;;
19312;SDS011;9791;50.820;4.406;2023-01-28T14:29:45;17.67;;;10.35;;
19312;SDS011;9791;50.820;4.406;2023-01-28T14:32:15;19.17;;;10.60;;
19312;SDS011;9791;50.820;4.406;2023-01-28T14:34:42;15.15;;;10.32;;
19312;SDS011;9791;50.820;4.406;2023-01-28T14:37:10;16.17;;;10.50;;
19312;SDS011;9791;50.820;4.406;2023-01-28T14:42:18;15.15;;;9.93;;
19312;SDS011;9791;50.820;4.406;2023-01-28T14:44:45;14.43;;;9.77;;
19312;SDS011;9791;50.820;4.406;2023-01-28T14:49:48;14.63;;;9.50;;
19312;SDS011;9791;50.820;4.406;2023-01-28T14:52:23;14.80;;;9.55;;
19312;SDS011;9791;50.820;4.406;2023-01-28T14:55:11;15.20;;;9.27;;
19312;SDS011;9791;50.820;4.406;2023-01-28T14:57:55;16.10;;;9.30;;
19312;SDS011;9791;50.820;4.406;2023-01-28T15:00:27;13.32;;;8.70;;
19312;SDS011;9791;50.820;4.406;2023-01-28T15:02:54;14.13;;;9.32;;
19312;SDS011;9791;50.820;4.406;2023-01-28T15:05:24;14.77;;;10.07;;
19312;SDS011;9791;50.820;4.406;2023-01-28T15:07:51;13.90;;;9.15;;
19312;SDS011;9791;50.820;4.406;2023-01-28T15:12:46;14.52;;;9.80;;
19312;SDS011;9791;50.820;4.406;2023-01-28T15:17:41;14.37;;;9.87;;
19312;SDS011;9791;50.820;4.406;2023-01-28T15:20:08;15.20;;;9.60;;
19312;SDS011;9791;50.820;4.406;2023-01-28T15:22:34;15.00;;;9.52;;
19312;SDS011;9791;50.820;4.406;2023-01-28T15:25:00;17.00;;;10.10;;
19312;SDS011;9791;50.820;4.406;2023-01-28T15:27:27;16.80;;;9.73;;
19312;SDS011;9791;50.820;4.406;2023-01-28T15:29:56;15.03;;;8.83;;
19312;SDS011;9791;50.820;4.406;2023-01-28T15:32:24;20.13;;;10.70;;
19312;SDS011;9791;50.820;4.406;2023-01-28T15:34:50;16.33;;;8.90;;
19312;SDS011;9791;50.820;4.406;2023-01-28T15:37:16;15.00;;;9.40;;
19312;SDS011;9791;50.820;4.406;2023-01-28T15:39:43;17.10;;;10.55;;
19312;SDS011;9791;50.820;4.406;2023-01-28T15:42:19;15.77;;;9.82;;
19312;SDS011;9791;50.820;4.406;2023-01-28T15:44:47;14.50;;;8.90;;
19312;SDS011;9791;50.820;4.406;2023-01-28T15:47:15;14.73;;;10.03;;
19312;SDS011;9791;50.820;4.406;2023-01-28T15:49:42;15.43;;;9.73;;
19312;SDS011;9791;50.820;4.406;2023-01-28T15:52:20;15.67;;;10.47;;
19312;SDS011;9791;50.820;4.406;2023-01-28T15:54:49;14.17;;;8.73;;
19312;SDS011;9791;50.820;4.406;2023-01-28T15:57:20;14.00;;;8.67;;
19312;SDS011;9791;50.820;4.406;2023-01-28T15:59:46;23.73;;;13.50;;
19312;SDS011;9791;50.820;4.406;2023-01-28T16:04:41;16.43;;;10.33;;
19312;SDS011;9791;50.820;4.406;2023-01-28T16:07:07;17.87;;;10.03;;
19312;SDS011;9791;50.820;4.406;2023-01-28T16:09:33;16.97;;;10.80;;
19312;SDS011;9791;50.820;4.406;2023-01-28T16:12:00;16.37;;;10.40;;
19312;SDS011;9791;50.820;4.406;2023-01-28T16:14:27;15.67;;;9.30;;
19312;SDS011;9791;50.820;4.406;2023-01-28T16:16:54;16.93;;;10.20;;
19312;SDS011;9791;50.820;4.406;2023-01-28T16:21:50;15.07;;;9.73;;
19312;SDS011;9791;50.820;4.406;2023-01-28T16:24:26;17.30;;;11.23;;
19312;SDS011;9791;50.820;4.406;2023-01-28T16:27:04;18.80;;;10.33;;
19312;SDS011;9791;50.820;4.406;2023-01-28T16:29:31;17.23;;;10.43;;
19312;SDS011;9791;50.820;4.406;2023-01-28T16:31:58;18.13;;;11.67;;
19312;SDS011;9791;50.820;4.406;2023-01-28T16:34:24;17.83;;;10.77;;
19312;SDS011;9791;50.820;4.406;2023-01-28T16:36:57;16.40;;;10.30;;
19312;SDS011;9791;50.820;4.406;2023-01-28T16:39:23;17.43;;;11.13;;
19312;SDS011;9791;50.820;4.406;2023-01-28T16:41:49;18.67;;;11.60;;
19312;SDS011;9791;50.820;4.406;2023-01-28T16:44:15;17.27;;;11.00;;
19312;SDS011;9791;50.820;4.406;2023-01-28T16:46:42;19.03;;;11.53;;
19312;SDS011;9791;50.820;4.406;2023-01-28T16:49:08;17.67;;;10.93;;
19312;SDS011;9791;50.820;4.406;2023-01-28T16:51:35;17.93;;;11.10;;
19312;SDS011;9791;50.820;4.406;2023-01-28T16:54:01;17.60;;;9.93;;
19312;SDS011;9791;50.820;4.406;2023-01-28T16:56:28;18.60;;;11.17;;
19312;SDS011;9791;50.820;4.406;2023-01-28T16:58:54;17.97;;;10.70;;
19312;SDS011;9791;50.820;4.406;2023-01-28T17:01:21;16.73;;;10.43;;
19312;SDS011;9791;50.820;4.406;2023-01-28T17:03:47;15.43;;;9.57;;
19312;SDS011;9791;50.820;4.406;2023-01-28T17:06:14;19.00;;;10.17;;